sensor_id;sensor_type;location;lat;lon;timestamp;P1;durP1;ratioP1;P2;durP2;ratioP2
51459;SDS011;37534;39.772;2.718;2023-07-20T00:00:16;12.38;;;8.32;;
51459;SDS011;37534;39.772;2.718;2023-07-20T00:02:42;13.48;;;8.70;;
51459;SDS011;37534;39.772;2.718;2023-07-20T00:05:08;17.75;;;8.52;;
51459;SDS011;37534;39.772;2.718;2023-07-20T00:07:33;19.25;;;10.30;;
51459;SDS011;37534;39.772;2.718;2023-07-20T00:09:59;17.55;;;9.75;;
51459;SDS011;37534;39.772;2.718;2023-07-20T00:12:24;19.30;;;9.27;;
51459;SDS011;37534;39.772;2.718;2023-07-20T00:14:50;19.67;;;10.25;;
51459;SDS011;37534;39.772;2.718;2023-07-20T00:17:18;15.82;;;9.32;;
51459;SDS011;37534;39.772;2.718;2023-07-20T00:19:44;15.93;;;8.98;;
51459;SDS011;37534;39.772;2.718;2023-07-20T00:22:10;12.25;;;9.93;;
51459;SDS011;37534;39.772;2.718;2023-07-20T00:24:36;25.92;;;9.88;;
51459;SDS011;37534;39.772;2.718;2023-07-20T00:27:01;13.80;;;9.63;;
51459;SDS011;37534;39.772;2.718;2023-07-20T00:29:27;14.63;;;8.32;;
51459;SDS011;37534;39.772;2.718;2023-07-20T00:31:53;16.48;;;8.88;;
51459;SDS011;37534;39.772;2.718;2023-07-20T00:34:18;12.80;;;9.55;;
51459;SDS011;37534;39.772;2.718;2023-07-20T00:36:44;16.90;;;9.35;;
51459;SDS011;37534;39.772;2.718;2023-07-20T00:39:10;14.15;;;8.77;;
51459;SDS011;37534;39.772;2.718;2023-07-20T00:41:35;28.05;;;9.90;;
51459;SDS011;37534;39.772;2.718;2023-07-20T00:44:01;14.57;;;9.07;;
51459;SDS011;37534;39.772;2.718;2023-07-20T00:46:27;13.88;;;9.85;;
51459;SDS011;37534;39.772;2.718;2023-07-20T00:48:52;14.32;;;9.63;;
51459;SDS011;37534;39.772;2.718;2023-07-20T00:51:19;13.38;;;8.65;;
51459;SDS011;37534;39.772;2.718;2023-07-20T00:53:46;11.88;;;8.63;;
51459;SDS011;37534;39.772;2.718;2023-07-20T00:56:12;21.30;;;9.68;;
51459;SDS011;37534;39.772;2.718;2023-07-20T00:58:37;17.02;;;9.18;;
51459;SDS011;37534;39.772;2.718;2023-07-20T01:01:03;12.80;;;9.13;;
51459;SDS011;37534;39.772;2.718;2023-07-20T01:03:29;15.05;;;9.70;;
51459;SDS011;37534;39.772;2.718;2023-07-20T01:05:59;13.52;;;9.77;;
51459;SDS011;37534;39.772;2.718;2023-07-20T01:14:03;14.32;;;9.70;;
51459;SDS011;37534;39.772;2.718;2023-07-20T01:16:30;15.73;;;11.00;;
51459;SDS011;37534;39.772;2.718;2023-07-20T01:18:55;25.20;;;10.23;;
51459;SDS011;37534;39.772;2.718;2023-07-20T01:21:23;19.92;;;9.45;;
51459;SDS011;37534;39.772;2.718;2023-07-20T01:26:44;20.05;;;9.63;;
51459;SDS011;37534;39.772;2.718;2023-07-20T01:29:32;16.67;;;10.18;;
51459;SDS011;37534;39.772;2.718;2023-07-20T01:32:08;13.77;;;8.70;;
51459;SDS011;37534;39.772;2.718;2023-07-20T01:34:35;17.92;;;8.70;;
51459;SDS011;37534;39.772;2.718;2023-07-20T01:37:02;14.52;;;9.25;;
51459;SDS011;37534;39.772;2.718;2023-07-20T01:39:28;11.27;;;8.52;;
51459;SDS011;37534;39.772;2.718;2023-07-20T01:41:54;16.70;;;9.05;;
51459;SDS011;37534;39.772;2.718;2023-07-20T01:44:20;22.77;;;9.90;;
51459;SDS011;37534;39.772;2.718;2023-07-20T01:46:46;14.15;;;8.13;;
51459;SDS011;37534;39.772;2.718;2023-07-20T01:49:11;10.70;;;9.02;;
51459;SDS011;37534;39.772;2.718;2023-07-20T01:51:37;15.50;;;9.98;;
51459;SDS011;37534;39.772;2.718;2023-07-20T01:54:03;11.95;;;8.85;;
51459;SDS011;37534;39.772;2.718;2023-07-20T01:56:28;15.18;;;9.40;;
51459;SDS011;37534;39.772;2.718;2023-07-20T01:58:54;12.45;;;8.98;;
51459;SDS011;37534;39.772;2.718;2023-07-20T02:01:19;11.05;;;8.82;;
51459;SDS011;37534;39.772;2.718;2023-07-20T02:03:45;19.00;;;9.27;;
51459;SDS011;37534;39.772;2.718;2023-07-20T02:06:10;17.80;;;10.45;;
51459;SDS011;37534;39.772;2.718;2023-07-20T02:08:36;19.35;;;9.35;;
51459;SDS011;37534;39.772;2.718;2023-07-20T02:11:01;17.73;;;9.45;;
51459;SDS011;37534;39.772;2.718;2023-07-20T02:13:27;18.00;;;9.73;;
51459;SDS011;37534;39.772;2.718;2023-07-20T02:15:53;17.48;;;10.52;;
51459;SDS011;37534;39.772;2.718;2023-07-20T02:18:18;15.45;;;9.90;;
51459;SDS011;37534;39.772;2.718;2023-07-20T02:20:44;16.35;;;9.93;;
51459;SDS011;37534;39.772;2.718;2023-07-20T02:23:10;12.80;;;9.30;;
51459;SDS011;37534;39.772;2.718;2023-07-20T02:25:36;12.55;;;9.18;;
51459;SDS011;37534;39.772;2.718;2023-07-20T02:28:02;16.70;;;9.75;;
51459;SDS011;37534;39.772;2.718;2023-07-20T02:30:29;17.75;;;9.68;;
51459;SDS011;37534;39.772;2.718;2023-07-20T02:32:54;16.35;;;10.73;;
51459;SDS011;37534;39.772;2.718;2023-07-20T02:35:23;17.60;;;10.20;;
51459;SDS011;37534;39.772;2.718;2023-07-20T02:37:49;15.23;;;10.32;;
51459;SDS011;37534;39.772;2.718;2023-07-20T02:40:14;12.75;;;10.15;;
51459;SDS011;37534;39.772;2.718;2023-07-20T02:42:40;11.30;;;9.35;;
51459;SDS011;37534;39.772;2.718;2023-07-20T02:45:06;15.95;;;10.38;;
51459;SDS011;37534;39.772;2.718;2023-07-20T02:47:32;11.90;;;8.90;;
51459;SDS011;37534;39.772;2.718;2023-07-20T02:49:58;11.73;;;9.15;;
51459;SDS011;37534;39.772;2.718;2023-07-20T02:52:23;10.55;;;8.65;;
51459;SDS011;37534;39.772;2.718;2023-07-20T02:54:49;16.13;;;9.95;;
51459;SDS011;37534;39.772;2.718;2023-07-20T02:57:15;15.32;;;11.30;;
51459;SDS011;37534;39.772;2.718;2023-07-20T02:59:40;11.65;;;9.55;;
51459;SDS011;37534;39.772;2.718;2023-07-20T03:02:06;15.23;;;10.50;;
51459;SDS011;37534;39.772;2.718;2023-07-20T03:04:34;13.10;;;9.43;;
51459;SDS011;37534;39.772;2.718;2023-07-20T03:07:02;13.82;;;9.95;;
51459;SDS011;37534;39.772;2.718;2023-07-20T03:09:29;15.15;;;10.00;;
51459;SDS011;37534;39.772;2.718;2023-07-20T03:11:54;16.63;;;10.65;;
51459;SDS011;37534;39.772;2.718;2023-07-20T03:14:20;13.82;;;9.07;;
51459;SDS011;37534;39.772;2.718;2023-07-20T03:16:46;13.90;;;10.80;;
51459;SDS011;37534;39.772;2.718;2023-07-20T03:19:12;11.82;;;8.73;;
51459;SDS011;37534;39.772;2.718;2023-07-20T03:21:37;21.92;;;10.07;;
51459;SDS011;37534;39.772;2.718;2023-07-20T03:24:06;23.70;;;11.27;;
51459;SDS011;37534;39.772;2.718;2023-07-20T03:26:35;12.15;;;9.77;;
51459;SDS011;37534;39.772;2.718;2023-07-20T03:29:01;17.60;;;11.57;;
51459;SDS011;37534;39.772;2.718;2023-07-20T03:31:27;19.30;;;10.55;;
51459;SDS011;37534;39.772;2.718;2023-07-20T03:33:52;17.65;;;10.40;;
51459;SDS011;37534;39.772;2.718;2023-07-20T03:36:18;13.32;;;9.75;;
51459;SDS011;37534;39.772;2.718;2023-07-20T03:38:44;25.08;;;12.00;;
51459;SDS011;37534;39.772;2.718;2023-07-20T03:41:10;20.13;;;10.65;;
51459;SDS011;37534;39.772;2.718;2023-07-20T03:43:36;12.60;;;9.25;;
51459;SDS011;37534;39.772;2.718;2023-07-20T03:46:02;12.68;;;9.45;;
51459;SDS011;37534;39.772;2.718;2023-07-20T03:48:32;19.02;;;10.43;;
51459;SDS011;37534;39.772;2.718;2023-07-20T03:50:58;10.00;;;8.98;;
51459;SDS011;37534;39.772;2.718;2023-07-20T03:53:25;13.60;;;9.55;;
51459;SDS011;37534;39.772;2.718;2023-07-20T03:55:51;11.95;;;9.50;;
51459;SDS011;37534;39.772;2.718;2023-07-20T03:58:18;14.40;;;9.63;;
51459;SDS011;37534;39.772;2.718;2023-07-20T04:00:49;14.93;;;10.18;;
51459;SDS011;37534;39.772;2.718;2023-07-20T04:03:15;13.10;;;9.60;;
51459;SDS011;37534;39.772;2.718;2023-07-20T04:05:43;14.43;;;9.13;;
51459;SDS011;37534;39.772;2.718;2023-07-20T04:08:09;12.95;;;9.32;;
51459;SDS011;37534;39.772;2.718;2023-07-20T04:10:36;16.70;;;10.73;;
51459;SDS011;37534;39.772;2.718;2023-07-20T04:13:02;14.48;;;10.10;;
51459;SDS011;37534;39.772;2.718;2023-07-20T04:15:28;14.63;;;10.25;;
51459;SDS011;37534;39.772;2.718;2023-07-20T04:17:53;16.35;;;10.90;;
51459;SDS011;37534;39.772;2.718;2023-07-20T04:20:21;23.80;;;10.95;;
51459;SDS011;37534;39.772;2.718;2023-07-20T04:22:48;13.05;;;11.10;;
51459;SDS011;37534;39.772;2.718;2023-07-20T04:25:13;19.70;;;9.77;;
51459;SDS011;37534;39.772;2.718;2023-07-20T04:27:39;12.30;;;9.82;;
51459;SDS011;37534;39.772;2.718;2023-07-20T04:30:06;12.38;;;9.88;;
51459;SDS011;37534;39.772;2.718;2023-07-20T04:32:33;23.58;;;10.82;;
51459;SDS011;37534;39.772;2.718;2023-07-20T04:34:59;15.45;;;9.90;;
51459;SDS011;37534;39.772;2.718;2023-07-20T04:37:25;18.40;;;10.77;;
51459;SDS011;37534;39.772;2.718;2023-07-20T04:39:50;12.35;;;9.35;;
51459;SDS011;37534;39.772;2.718;2023-07-20T04:42:16;13.95;;;9.75;;
51459;SDS011;37534;39.772;2.718;2023-07-20T04:44:41;13.95;;;9.70;;
51459;SDS011;37534;39.772;2.718;2023-07-20T04:47:07;13.15;;;10.35;;
51459;SDS011;37534;39.772;2.718;2023-07-20T04:49:33;13.50;;;10.23;;
51459;SDS011;37534;39.772;2.718;2023-07-20T04:51:59;15.70;;;10.27;;
51459;SDS011;37534;39.772;2.718;2023-07-20T04:54:25;18.85;;;10.40;;
51459;SDS011;37534;39.772;2.718;2023-07-20T04:56:52;17.27;;;9.15;;
51459;SDS011;37534;39.772;2.718;2023-07-20T04:59:18;14.75;;;9.82;;
51459;SDS011;37534;39.772;2.718;2023-07-20T05:01:44;14.23;;;9.55;;
51459;SDS011;37534;39.772;2.718;2023-07-20T05:04:10;18.75;;;10.18;;
51459;SDS011;37534;39.772;2.718;2023-07-20T05:06:35;20.23;;;10.05;;
51459;SDS011;37534;39.772;2.718;2023-07-20T05:09:01;13.82;;;10.77;;
51459;SDS011;37534;39.772;2.718;2023-07-20T05:11:26;22.42;;;11.50;;
51459;SDS011;37534;39.772;2.718;2023-07-20T05:13:52;23.27;;;10.57;;
51459;SDS011;37534;39.772;2.718;2023-07-20T05:16:17;15.75;;;10.00;;
51459;SDS011;37534;39.772;2.718;2023-07-20T05:18:43;16.60;;;10.75;;
51459;SDS011;37534;39.772;2.718;2023-07-20T05:21:09;22.90;;;10.73;;
51459;SDS011;37534;39.772;2.718;2023-07-20T05:23:34;27.48;;;9.70;;
51459;SDS011;37534;39.772;2.718;2023-07-20T05:26:00;20.67;;;9.98;;
51459;SDS011;37534;39.772;2.718;2023-07-20T05:28:25;27.17;;;11.75;;
51459;SDS011;37534;39.772;2.718;2023-07-20T05:30:52;25.50;;;9.38;;
51459;SDS011;37534;39.772;2.718;2023-07-20T05:33:19;11.57;;;9.50;;
51459;SDS011;37534;39.772;2.718;2023-07-20T05:35:45;10.50;;;8.77;;
51459;SDS011;37534;39.772;2.718;2023-07-20T05:38:10;21.50;;;10.07;;
51459;SDS011;37534;39.772;2.718;2023-07-20T05:40:40;16.67;;;10.15;;
51459;SDS011;37534;39.772;2.718;2023-07-20T05:43:07;13.18;;;9.90;;
51459;SDS011;37534;39.772;2.718;2023-07-20T05:45:32;14.40;;;9.70;;
51459;SDS011;37534;39.772;2.718;2023-07-20T05:47:58;15.65;;;9.90;;
51459;SDS011;37534;39.772;2.718;2023-07-20T05:50:24;20.27;;;10.93;;
51459;SDS011;37534;39.772;2.718;2023-07-20T05:52:52;11.00;;;9.70;;
51459;SDS011;37534;39.772;2.718;2023-07-20T05:55:18;14.50;;;9.80;;
51459;SDS011;37534;39.772;2.718;2023-07-20T05:57:43;21.98;;;11.15;;
51459;SDS011;37534;39.772;2.718;2023-07-20T06:00:09;16.08;;;10.40;;
51459;SDS011;37534;39.772;2.718;2023-07-20T06:02:35;19.05;;;9.93;;
51459;SDS011;37534;39.772;2.718;2023-07-20T06:05:01;13.75;;;9.25;;
51459;SDS011;37534;39.772;2.718;2023-07-20T06:07:26;16.35;;;11.00;;
51459;SDS011;37534;39.772;2.718;2023-07-20T06:09:52;13.75;;;9.13;;
51459;SDS011;37534;39.772;2.718;2023-07-20T06:12:18;22.13;;;10.60;;
51459;SDS011;37534;39.772;2.718;2023-07-20T06:14:44;24.52;;;10.93;;
51459;SDS011;37534;39.772;2.718;2023-07-20T06:17:09;20.40;;;9.38;;
51459;SDS011;37534;39.772;2.718;2023-07-20T06:19:35;22.63;;;9.20;;
51459;SDS011;37534;39.772;2.718;2023-07-20T06:22:01;11.73;;;8.80;;
51459;SDS011;37534;39.772;2.718;2023-07-20T06:24:26;20.70;;;10.10;;
51459;SDS011;37534;39.772;2.718;2023-07-20T06:26:54;28.92;;;9.63;;
51459;SDS011;37534;39.772;2.718;2023-07-20T06:29:19;27.02;;;10.65;;
51459;SDS011;37534;39.772;2.718;2023-07-20T06:31:45;20.45;;;8.82;;
51459;SDS011;37534;39.772;2.718;2023-07-20T06:34:10;15.82;;;10.02;;
51459;SDS011;37534;39.772;2.718;2023-07-20T06:36:36;16.55;;;9.15;;
51459;SDS011;37534;39.772;2.718;2023-07-20T06:39:01;15.90;;;8.70;;
51459;SDS011;37534;39.772;2.718;2023-07-20T06:41:27;18.77;;;9.50;;
51459;SDS011;37534;39.772;2.718;2023-07-20T06:43:53;18.23;;;9.00;;
51459;SDS011;37534;39.772;2.718;2023-07-20T06:46:23;15.77;;;9.35;;
51459;SDS011;37534;39.772;2.718;2023-07-20T06:48:51;19.27;;;10.68;;
51459;SDS011;37534;39.772;2.718;2023-07-20T06:51:17;15.25;;;9.43;;
51459;SDS011;37534;39.772;2.718;2023-07-20T06:53:43;18.58;;;9.80;;
51459;SDS011;37534;39.772;2.718;2023-07-20T06:56:09;15.38;;;10.43;;
51459;SDS011;37534;39.772;2.718;2023-07-20T06:58:34;22.75;;;9.27;;
51459;SDS011;37534;39.772;2.718;2023-07-20T07:01:04;21.85;;;9.80;;
51459;SDS011;37534;39.772;2.718;2023-07-20T07:03:33;23.45;;;10.52;;
51459;SDS011;37534;39.772;2.718;2023-07-20T07:05:59;23.08;;;9.95;;
51459;SDS011;37534;39.772;2.718;2023-07-20T07:08:25;22.08;;;10.52;;
51459;SDS011;37534;39.772;2.718;2023-07-20T07:10:50;17.60;;;9.32;;
51459;SDS011;37534;39.772;2.718;2023-07-20T07:13:17;12.70;;;8.77;;
51459;SDS011;37534;39.772;2.718;2023-07-20T07:15:43;16.60;;;9.27;;
51459;SDS011;37534;39.772;2.718;2023-07-20T07:18:08;19.33;;;10.55;;
51459;SDS011;37534;39.772;2.718;2023-07-20T07:20:34;19.88;;;9.05;;
51459;SDS011;37534;39.772;2.718;2023-07-20T07:22:59;19.95;;;8.75;;
51459;SDS011;37534;39.772;2.718;2023-07-20T07:25:25;17.20;;;9.05;;
51459;SDS011;37534;39.772;2.718;2023-07-20T07:27:52;20.83;;;8.50;;
51459;SDS011;37534;39.772;2.718;2023-07-20T07:30:19;13.23;;;8.60;;
51459;SDS011;37534;39.772;2.718;2023-07-20T07:32:45;21.92;;;8.52;;
51459;SDS011;37534;39.772;2.718;2023-07-20T07:35:11;18.05;;;7.72;;
51459;SDS011;37534;39.772;2.718;2023-07-20T07:37:37;15.52;;;8.30;;
51459;SDS011;37534;39.772;2.718;2023-07-20T07:40:03;12.32;;;7.45;;
51459;SDS011;37534;39.772;2.718;2023-07-20T07:42:31;11.25;;;8.20;;
51459;SDS011;37534;39.772;2.718;2023-07-20T07:44:57;16.77;;;8.02;;
51459;SDS011;37534;39.772;2.718;2023-07-20T07:47:22;14.20;;;8.40;;
51459;SDS011;37534;39.772;2.718;2023-07-20T07:49:48;36.20;;;7.63;;
51459;SDS011;37534;39.772;2.718;2023-07-20T07:52:14;11.10;;;7.47;;
51459;SDS011;37534;39.772;2.718;2023-07-20T07:54:40;10.57;;;7.70;;
51459;SDS011;37534;39.772;2.718;2023-07-20T07:57:05;22.05;;;8.30;;
51459;SDS011;37534;39.772;2.718;2023-07-20T07:59:31;14.32;;;7.25;;
51459;SDS011;37534;39.772;2.718;2023-07-20T08:02:01;18.60;;;8.73;;
51459;SDS011;37534;39.772;2.718;2023-07-20T08:04:27;12.40;;;7.90;;
51459;SDS011;37534;39.772;2.718;2023-07-20T08:06:53;20.98;;;8.23;;
51459;SDS011;37534;39.772;2.718;2023-07-20T08:09:19;14.10;;;7.63;;
51459;SDS011;37534;39.772;2.718;2023-07-20T08:11:44;12.40;;;7.35;;
51459;SDS011;37534;39.772;2.718;2023-07-20T08:14:10;12.05;;;7.50;;
51459;SDS011;37534;39.772;2.718;2023-07-20T08:16:35;15.52;;;8.18;;
51459;SDS011;37534;39.772;2.718;2023-07-20T08:19:01;13.10;;;7.78;;
51459;SDS011;37534;39.772;2.718;2023-07-20T08:21:27;22.23;;;8.50;;
51459;SDS011;37534;39.772;2.718;2023-07-20T08:23:53;16.60;;;8.35;;
51459;SDS011;37534;39.772;2.718;2023-07-20T08:26:19;14.30;;;9.13;;
51459;SDS011;37534;39.772;2.718;2023-07-20T08:28:47;13.35;;;8.32;;
51459;SDS011;37534;39.772;2.718;2023-07-20T08:31:13;11.90;;;6.93;;
51459;SDS011;37534;39.772;2.718;2023-07-20T08:33:39;16.00;;;8.57;;
51459;SDS011;37534;39.772;2.718;2023-07-20T08:36:04;19.00;;;7.85;;
51459;SDS011;37534;39.772;2.718;2023-07-20T08:38:31;13.68;;;7.18;;
51459;SDS011;37534;39.772;2.718;2023-07-20T08:40:56;18.83;;;7.65;;
51459;SDS011;37534;39.772;2.718;2023-07-20T08:43:25;15.15;;;7.55;;
51459;SDS011;37534;39.772;2.718;2023-07-20T08:45:50;18.02;;;8.23;;
51459;SDS011;37534;39.772;2.718;2023-07-20T08:48:19;9.88;;;7.65;;
51459;SDS011;37534;39.772;2.718;2023-07-20T08:50:45;13.95;;;7.18;;
51459;SDS011;37534;39.772;2.718;2023-07-20T08:53:14;24.02;;;7.43;;
51459;SDS011;37534;39.772;2.718;2023-07-20T08:55:40;18.08;;;8.32;;
51459;SDS011;37534;39.772;2.718;2023-07-20T08:58:09;12.43;;;7.75;;
51459;SDS011;37534;39.772;2.718;2023-07-20T09:00:37;20.33;;;8.73;;
51459;SDS011;37534;39.772;2.718;2023-07-20T09:03:03;26.00;;;8.20;;
51459;SDS011;37534;39.772;2.718;2023-07-20T09:05:30;19.30;;;8.30;;
51459;SDS011;37534;39.772;2.718;2023-07-20T09:07:56;25.83;;;9.15;;
51459;SDS011;37534;39.772;2.718;2023-07-20T09:10:22;13.48;;;7.28;;
51459;SDS011;37534;39.772;2.718;2023-07-20T09:12:48;16.63;;;8.02;;
51459;SDS011;37534;39.772;2.718;2023-07-20T09:15:14;12.38;;;8.73;;
51459;SDS011;37534;39.772;2.718;2023-07-20T09:17:45;17.60;;;8.52;;
51459;SDS011;37534;39.772;2.718;2023-07-20T09:20:15;21.55;;;7.97;;
51459;SDS011;37534;39.772;2.718;2023-07-20T09:22:42;17.27;;;8.07;;
51459;SDS011;37534;39.772;2.718;2023-07-20T09:25:15;16.98;;;8.43;;
51459;SDS011;37534;39.772;2.718;2023-07-20T09:27:43;15.07;;;7.13;;
51459;SDS011;37534;39.772;2.718;2023-07-20T09:30:11;25.13;;;7.45;;
51459;SDS011;37534;39.772;2.718;2023-07-20T09:32:49;13.25;;;7.38;;
51459;SDS011;37534;39.772;2.718;2023-07-20T09:35:16;15.00;;;8.57;;
51459;SDS011;37534;39.772;2.718;2023-07-20T09:37:47;17.48;;;8.20;;
51459;SDS011;37534;39.772;2.718;2023-07-20T09:40:16;18.20;;;7.35;;
51459;SDS011;37534;39.772;2.718;2023-07-20T09:42:42;14.15;;;6.75;;
51459;SDS011;37534;39.772;2.718;2023-07-20T09:45:08;15.15;;;7.25;;
51459;SDS011;37534;39.772;2.718;2023-07-20T09:47:38;20.88;;;7.90;;
51459;SDS011;37534;39.772;2.718;2023-07-20T09:50:05;17.80;;;7.90;;
51459;SDS011;37534;39.772;2.718;2023-07-20T09:52:40;18.17;;;8.10;;
51459;SDS011;37534;39.772;2.718;2023-07-20T09:55:10;15.02;;;7.93;;
51459;SDS011;37534;39.772;2.718;2023-07-20T09:57:37;14.07;;;6.43;;
51459;SDS011;37534;39.772;2.718;2023-07-20T10:00:03;14.75;;;7.88;;
51459;SDS011;37534;39.772;2.718;2023-07-20T10:02:42;29.95;;;7.32;;
51459;SDS011;37534;39.772;2.718;2023-07-20T10:05:10;12.48;;;7.95;;
51459;SDS011;37534;39.772;2.718;2023-07-20T10:10:16;22.48;;;8.20;;
51459;SDS011;37534;39.772;2.718;2023-07-20T10:12:45;12.25;;;6.95;;
51459;SDS011;37534;39.772;2.718;2023-07-20T10:15:20;18.60;;;8.32;;
51459;SDS011;37534;39.772;2.718;2023-07-20T10:17:53;14.63;;;7.35;;
51459;SDS011;37534;39.772;2.718;2023-07-20T10:20:27;12.32;;;7.53;;
51459;SDS011;37534;39.772;2.718;2023-07-20T10:22:54;12.30;;;6.55;;
51459;SDS011;37534;39.772;2.718;2023-07-20T10:25:24;19.40;;;8.13;;
51459;SDS011;37534;39.772;2.718;2023-07-20T10:27:50;15.82;;;7.00;;
51459;SDS011;37534;39.772;2.718;2023-07-20T10:30:17;16.52;;;6.28;;
51459;SDS011;37534;39.772;2.718;2023-07-20T10:32:44;17.85;;;7.97;;
51459;SDS011;37534;39.772;2.718;2023-07-20T10:35:14;15.70;;;7.63;;
51459;SDS011;37534;39.772;2.718;2023-07-20T10:37:47;16.67;;;7.17;;
51459;SDS011;37534;39.772;2.718;2023-07-20T10:40:37;16.80;;;7.00;;
51459;SDS011;37534;39.772;2.718;2023-07-20T10:43:07;18.10;;;6.43;;
51459;SDS011;37534;39.772;2.718;2023-07-20T10:45:34;14.07;;;6.97;;
51459;SDS011;37534;39.772;2.718;2023-07-20T10:48:24;16.90;;;6.97;;
51459;SDS011;37534;39.772;2.718;2023-07-20T10:51:12;13.80;;;6.28;;
51459;SDS011;37534;39.772;2.718;2023-07-20T10:53:38;14.45;;;6.18;;
51459;SDS011;37534;39.772;2.718;2023-07-20T10:56:08;20.17;;;6.63;;
51459;SDS011;37534;39.772;2.718;2023-07-20T10:58:37;11.43;;;6.40;;
51459;SDS011;37534;39.772;2.718;2023-07-20T11:01:03;19.42;;;8.02;;
51459;SDS011;37534;39.772;2.718;2023-07-20T11:03:31;14.85;;;6.22;;
51459;SDS011;37534;39.772;2.718;2023-07-20T11:05:58;22.50;;;7.68;;
51459;SDS011;37534;39.772;2.718;2023-07-20T11:08:42;16.45;;;6.85;;
51459;SDS011;37534;39.772;2.718;2023-07-20T11:11:21;16.17;;;7.32;;
51459;SDS011;37534;39.772;2.718;2023-07-20T11:13:54;13.57;;;6.43;;
51459;SDS011;37534;39.772;2.718;2023-07-20T11:16:34;15.02;;;6.80;;
51459;SDS011;37534;39.772;2.718;2023-07-20T11:19:00;8.40;;;5.38;;
51459;SDS011;37534;39.772;2.718;2023-07-20T11:21:27;19.80;;;6.97;;
51459;SDS011;37534;39.772;2.718;2023-07-20T11:23:53;18.50;;;6.78;;
51459;SDS011;37534;39.772;2.718;2023-07-20T11:26:20;19.27;;;6.68;;
51459;SDS011;37534;39.772;2.718;2023-07-20T11:28:49;20.30;;;7.82;;
51459;SDS011;37534;39.772;2.718;2023-07-20T11:33:42;9.13;;;6.28;;
51459;SDS011;37534;39.772;2.718;2023-07-20T11:36:08;17.10;;;7.10;;
51459;SDS011;37534;39.772;2.718;2023-07-20T11:38:34;13.80;;;7.07;;
51459;SDS011;37534;39.772;2.718;2023-07-20T11:41:00;17.70;;;8.05;;
51459;SDS011;37534;39.772;2.718;2023-07-20T11:43:27;15.43;;;6.18;;
51459;SDS011;37534;39.772;2.718;2023-07-20T11:45:53;13.73;;;7.03;;
51459;SDS011;37534;39.772;2.718;2023-07-20T11:48:19;12.02;;;6.82;;
51459;SDS011;37534;39.772;2.718;2023-07-20T11:50:44;11.27;;;6.70;;
51459;SDS011;37534;39.772;2.718;2023-07-20T11:53:10;10.30;;;6.75;;
51459;SDS011;37534;39.772;2.718;2023-07-20T11:55:36;15.52;;;6.00;;
51459;SDS011;37534;39.772;2.718;2023-07-20T11:58:04;9.10;;;6.10;;
51459;SDS011;37534;39.772;2.718;2023-07-20T12:00:31;14.68;;;7.15;;
51459;SDS011;37534;39.772;2.718;2023-07-20T12:02:58;13.50;;;7.03;;
51459;SDS011;37534;39.772;2.718;2023-07-20T12:05:24;14.85;;;7.57;;
51459;SDS011;37534;39.772;2.718;2023-07-20T12:07:51;18.40;;;6.78;;
51459;SDS011;37534;39.772;2.718;2023-07-20T12:10:23;17.58;;;6.07;;
51459;SDS011;37534;39.772;2.718;2023-07-20T12:12:50;10.95;;;6.78;;
51459;SDS011;37534;39.772;2.718;2023-07-20T12:15:17;29.40;;;7.43;;
51459;SDS011;37534;39.772;2.718;2023-07-20T12:17:46;17.27;;;6.80;;
51459;SDS011;37534;39.772;2.718;2023-07-20T12:20:24;11.50;;;6.78;;
51459;SDS011;37534;39.772;2.718;2023-07-20T12:22:50;21.88;;;7.47;;
51459;SDS011;37534;39.772;2.718;2023-07-20T12:25:15;18.67;;;7.45;;
51459;SDS011;37534;39.772;2.718;2023-07-20T12:27:45;13.52;;;6.85;;
51459;SDS011;37534;39.772;2.718;2023-07-20T12:30:11;13.10;;;7.15;;
51459;SDS011;37534;39.772;2.718;2023-07-20T12:32:38;16.35;;;7.07;;
51459;SDS011;37534;39.772;2.718;2023-07-20T12:35:04;11.90;;;7.30;;
51459;SDS011;37534;39.772;2.718;2023-07-20T12:37:31;16.88;;;7.43;;
51459;SDS011;37534;39.772;2.718;2023-07-20T12:39:57;18.92;;;8.57;;
51459;SDS011;37534;39.772;2.718;2023-07-20T12:42:22;20.20;;;7.57;;
51459;SDS011;37534;39.772;2.718;2023-07-20T12:44:49;11.07;;;7.05;;
51459;SDS011;37534;39.772;2.718;2023-07-20T12:47:14;16.20;;;7.07;;
51459;SDS011;37534;39.772;2.718;2023-07-20T12:49:41;13.45;;;6.90;;
51459;SDS011;37534;39.772;2.718;2023-07-20T12:52:10;10.10;;;6.82;;
51459;SDS011;37534;39.772;2.718;2023-07-20T12:54:36;14.85;;;8.07;;
51459;SDS011;37534;39.772;2.718;2023-07-20T12:57:01;16.30;;;7.90;;
51459;SDS011;37534;39.772;2.718;2023-07-20T12:59:28;13.80;;;6.93;;
51459;SDS011;37534;39.772;2.718;2023-07-20T13:01:54;16.80;;;7.18;;
51459;SDS011;37534;39.772;2.718;2023-07-20T13:04:19;19.42;;;7.55;;
51459;SDS011;37534;39.772;2.718;2023-07-20T13:06:45;8.10;;;6.53;;
51459;SDS011;37534;39.772;2.718;2023-07-20T13:09:11;17.05;;;6.13;;
51459;SDS011;37534;39.772;2.718;2023-07-20T13:11:36;22.00;;;6.93;;
51459;SDS011;37534;39.772;2.718;2023-07-20T13:14:02;10.73;;;5.63;;
51459;SDS011;37534;39.772;2.718;2023-07-20T13:16:28;12.57;;;5.63;;
51459;SDS011;37534;39.772;2.718;2023-07-20T13:18:53;18.48;;;5.90;;
51459;SDS011;37534;39.772;2.718;2023-07-20T13:21:19;11.45;;;6.32;;
51459;SDS011;37534;39.772;2.718;2023-07-20T13:23:47;17.27;;;5.75;;
51459;SDS011;37534;39.772;2.718;2023-07-20T13:26:13;9.68;;;5.47;;
51459;SDS011;37534;39.772;2.718;2023-07-20T13:28:40;10.23;;;6.00;;
51459;SDS011;37534;39.772;2.718;2023-07-20T13:31:06;19.60;;;6.82;;
51459;SDS011;37534;39.772;2.718;2023-07-20T13:33:34;20.40;;;6.80;;
51459;SDS011;37534;39.772;2.718;2023-07-20T13:36:00;16.15;;;6.05;;
51459;SDS011;37534;39.772;2.718;2023-07-20T13:38:26;22.52;;;6.55;;
51459;SDS011;37534;39.772;2.718;2023-07-20T13:40:51;26.58;;;6.63;;
51459;SDS011;37534;39.772;2.718;2023-07-20T13:43:17;15.40;;;6.50;;
51459;SDS011;37534;39.772;2.718;2023-07-20T13:45:43;18.67;;;5.68;;
51459;SDS011;37534;39.772;2.718;2023-07-20T13:48:08;18.27;;;5.55;;
51459;SDS011;37534;39.772;2.718;2023-07-20T13:50:34;27.33;;;5.93;;
51459;SDS011;37534;39.772;2.718;2023-07-20T13:53:00;14.90;;;5.68;;
51459;SDS011;37534;39.772;2.718;2023-07-20T13:55:27;24.38;;;5.95;;
51459;SDS011;37534;39.772;2.718;2023-07-20T13:57:53;9.88;;;5.47;;
51459;SDS011;37534;39.772;2.718;2023-07-20T14:00:19;15.55;;;7.00;;
51459;SDS011;37534;39.772;2.718;2023-07-20T14:02:44;15.77;;;6.50;;
51459;SDS011;37534;39.772;2.718;2023-07-20T14:05:10;17.17;;;5.63;;
51459;SDS011;37534;39.772;2.718;2023-07-20T14:07:35;19.05;;;6.90;;
51459;SDS011;37534;39.772;2.718;2023-07-20T14:10:02;14.60;;;5.95;;
51459;SDS011;37534;39.772;2.718;2023-07-20T14:12:28;23.60;;;7.10;;
51459;SDS011;37534;39.772;2.718;2023-07-20T14:14:54;21.02;;;7.00;;
51459;SDS011;37534;39.772;2.718;2023-07-20T14:17:21;17.02;;;6.90;;
51459;SDS011;37534;39.772;2.718;2023-07-20T14:19:47;21.95;;;6.75;;
51459;SDS011;37534;39.772;2.718;2023-07-20T14:22:13;18.50;;;7.15;;
51459;SDS011;37534;39.772;2.718;2023-07-20T14:24:38;15.98;;;6.57;;
51459;SDS011;37534;39.772;2.718;2023-07-20T14:27:04;16.77;;;6.70;;
51459;SDS011;37534;39.772;2.718;2023-07-20T14:29:30;28.73;;;7.22;;
51459;SDS011;37534;39.772;2.718;2023-07-20T14:31:56;16.38;;;5.40;;
51459;SDS011;37534;39.772;2.718;2023-07-20T14:34:22;13.07;;;5.47;;
51459;SDS011;37534;39.772;2.718;2023-07-20T14:36:48;21.73;;;6.28;;
51459;SDS011;37534;39.772;2.718;2023-07-20T14:39:15;17.33;;;6.32;;
51459;SDS011;37534;39.772;2.718;2023-07-20T14:41:40;20.80;;;6.88;;
51459;SDS011;37534;39.772;2.718;2023-07-20T14:44:06;26.92;;;7.05;;